sensor_id;sensor_type;location;lat;lon;timestamp;P1;durP1;ratioP1;P2;durP2;ratioP2
9823;SDS011;4951;50.778;7.196;2022-08-21T00:02:53;6.00;;;4.27;;
9823;SDS011;4951;50.778;7.196;2022-08-21T00:05:32;7.90;;;4.80;;
9823;SDS011;4951;50.778;7.196;2022-08-21T00:08:04;7.20;;;4.67;;
9823;SDS011;4951;50.778;7.196;2022-08-21T00:10:40;7.83;;;4.70;;
9823;SDS011;4951;50.778;7.196;2022-08-21T00:13:17;6.67;;;4.47;;
9823;SDS011;4951;50.778;7.196;2022-08-21T00:15:50;8.80;;;4.77;;
9823;SDS011;4951;50.778;7.196;2022-08-21T00:18:22;6.43;;;4.33;;
9823;SDS011;4951;50.778;7.196;2022-08-21T00:21:20;6.20;;;4.43;;
9823;SDS011;4951;50.778;7.196;2022-08-21T00:23:48;10.50;;;5.20;;
9823;SDS011;4951;50.778;7.196;2022-08-21T00:26:16;6.43;;;5.47;;
9823;SDS011;4951;50.778;7.196;2022-08-21T00:28:45;10.37;;;5.47;;
9823;SDS011;4951;50.778;7.196;2022-08-21T00:31:17;9.03;;;5.33;;
9823;SDS011;4951;50.778;7.196;2022-08-21T00:33:55;7.87;;;5.33;;
9823;SDS011;4951;50.778;7.196;2022-08-21T00:36:24;8.60;;;4.90;;
9823;SDS011;4951;50.778;7.196;2022-08-21T00:38:56;8.23;;;4.60;;
9823;SDS011;4951;50.778;7.196;2022-08-21T00:41:37;9.33;;;5.13;;
9823;SDS011;4951;50.778;7.196;2022-08-21T00:44:10;12.87;;;5.50;;
9823;SDS011;4951;50.778;7.196;2022-08-21T00:46:45;6.07;;;4.90;;
9823;SDS011;4951;50.778;7.196;2022-08-21T00:49:28;7.17;;;4.87;;
9823;SDS011;4951;50.778;7.196;2022-08-21T00:52:00;9.13;;;5.20;;
9823;SDS011;4951;50.778;7.196;2022-08-21T00:54:30;8.07;;;4.90;;
9823;SDS011;4951;50.778;7.196;2022-08-21T00:57:10;8.20;;;4.53;;
9823;SDS011;4951;50.778;7.196;2022-08-21T01:00:27;6.77;;;4.80;;
9823;SDS011;4951;50.778;7.196;2022-08-21T01:03:16;7.43;;;4.80;;
9823;SDS011;4951;50.778;7.196;2022-08-21T01:05:53;6.47;;;5.17;;
9823;SDS011;4951;50.778;7.196;2022-08-21T01:08:24;8.67;;;5.00;;
9823;SDS011;4951;50.778;7.196;2022-08-21T01:11:46;6.67;;;4.90;;
9823;SDS011;4951;50.778;7.196;2022-08-21T01:14:21;7.47;;;4.67;;
9823;SDS011;4951;50.778;7.196;2022-08-21T01:17:09;5.40;;;4.50;;
9823;SDS011;4951;50.778;7.196;2022-08-21T01:19:39;6.67;;;5.33;;
9823;SDS011;4951;50.778;7.196;2022-08-21T01:22:12;9.23;;;5.10;;
9823;SDS011;4951;50.778;7.196;2022-08-21T01:24:40;8.50;;;5.50;;
9823;SDS011;4951;50.778;7.196;2022-08-21T01:27:07;7.37;;;5.30;;
9823;SDS011;4951;50.778;7.196;2022-08-21T01:29:44;7.00;;;5.07;;
9823;SDS011;4951;50.778;7.196;2022-08-21T01:32:24;10.53;;;5.20;;
9823;SDS011;4951;50.778;7.196;2022-08-21T01:34:54;7.43;;;5.20;;
9823;SDS011;4951;50.778;7.196;2022-08-21T01:37:23;7.90;;;5.37;;
9823;SDS011;4951;50.778;7.196;2022-08-21T01:39:52;10.67;;;5.33;;
9823;SDS011;4951;50.778;7.196;2022-08-21T01:42:35;7.10;;;4.53;;
9823;SDS011;4951;50.778;7.196;2022-08-21T01:45:38;7.73;;;5.20;;
9823;SDS011;4951;50.778;7.196;2022-08-21T01:48:06;6.37;;;5.33;;
9823;SDS011;4951;50.778;7.196;2022-08-21T01:50:50;7.73;;;4.97;;
9823;SDS011;4951;50.778;7.196;2022-08-21T01:53:19;8.07;;;5.23;;
9823;SDS011;4951;50.778;7.196;2022-08-21T01:55:54;7.97;;;5.00;;
9823;SDS011;4951;50.778;7.196;2022-08-21T01:58:35;7.27;;;4.70;;
9823;SDS011;4951;50.778;7.196;2022-08-21T02:01:25;6.60;;;5.00;;
9823;SDS011;4951;50.778;7.196;2022-08-21T02:03:55;8.27;;;5.30;;
9823;SDS011;4951;50.778;7.196;2022-08-21T02:06:30;7.00;;;5.20;;
9823;SDS011;4951;50.778;7.196;2022-08-21T02:09:00;6.70;;;5.27;;
9823;SDS011;4951;50.778;7.196;2022-08-21T02:11:33;10.87;;;5.90;;
9823;SDS011;4951;50.778;7.196;2022-08-21T02:14:09;8.17;;;5.33;;
9823;SDS011;4951;50.778;7.196;2022-08-21T02:16:43;9.57;;;5.00;;
9823;SDS011;4951;50.778;7.196;2022-08-21T02:19:31;9.43;;;5.73;;
9823;SDS011;4951;50.778;7.196;2022-08-21T02:22:08;9.00;;;5.80;;
9823;SDS011;4951;50.778;7.196;2022-08-21T02:24:40;6.10;;;5.43;;
9823;SDS011;4951;50.778;7.196;2022-08-21T02:27:11;9.30;;;5.37;;
9823;SDS011;4951;50.778;7.196;2022-08-21T02:29:40;8.83;;;5.50;;
9823;SDS011;4951;50.778;7.196;2022-08-21T02:32:08;7.53;;;5.40;;
9823;SDS011;4951;50.778;7.196;2022-08-21T02:34:35;6.33;;;5.10;;
9823;SDS011;4951;50.778;7.196;2022-08-21T02:37:10;7.63;;;5.70;;
9823;SDS011;4951;50.778;7.196;2022-08-21T02:40:00;6.30;;;5.10;;
9823;SDS011;4951;50.778;7.196;2022-08-21T02:42:29;8.93;;;5.47;;
9823;SDS011;4951;50.778;7.196;2022-08-21T02:45:06;8.60;;;5.90;;
9823;SDS011;4951;50.778;7.196;2022-08-21T02:47:34;6.37;;;5.33;;
9823;SDS011;4951;50.778;7.196;2022-08-21T02:50:02;6.83;;;5.50;;
9823;SDS011;4951;50.778;7.196;2022-08-21T02:52:34;7.13;;;5.20;;
9823;SDS011;4951;50.778;7.196;2022-08-21T02:55:07;7.80;;;5.80;;
9823;SDS011;4951;50.778;7.196;2022-08-21T02:57:34;8.07;;;5.53;;
9823;SDS011;4951;50.778;7.196;2022-08-21T03:00:10;8.00;;;5.60;;
9823;SDS011;4951;50.778;7.196;2022-08-21T03:03:07;8.43;;;5.63;;
9823;SDS011;4951;50.778;7.196;2022-08-21T03:05:35;11.07;;;6.27;;
9823;SDS011;4951;50.778;7.196;2022-08-21T03:08:08;9.83;;;5.83;;
9823;SDS011;4951;50.778;7.196;2022-08-21T03:10:38;6.07;;;5.47;;
9823;SDS011;4951;50.778;7.196;2022-08-21T03:13:10;7.07;;;5.73;;
9823;SDS011;4951;50.778;7.196;2022-08-21T03:16:18;9.97;;;6.03;;
9823;SDS011;4951;50.778;7.196;2022-08-21T03:18:59;9.00;;;5.87;;
9823;SDS011;4951;50.778;7.196;2022-08-21T03:21:28;10.20;;;6.03;;
9823;SDS011;4951;50.778;7.196;2022-08-21T03:23:57;8.40;;;6.23;;
9823;SDS011;4951;50.778;7.196;2022-08-21T03:26:25;7.17;;;6.07;;
9823;SDS011;4951;50.778;7.196;2022-08-21T03:28:53;7.63;;;6.23;;
9823;SDS011;4951;50.778;7.196;2022-08-21T03:31:26;10.27;;;6.50;;
9823;SDS011;4951;50.778;7.196;2022-08-21T03:34:00;7.00;;;5.80;;
9823;SDS011;4951;50.778;7.196;2022-08-21T03:36:31;8.57;;;6.13;;
9823;SDS011;4951;50.778;7.196;2022-08-21T03:39:02;11.60;;;6.43;;
9823;SDS011;4951;50.778;7.196;2022-08-21T03:41:36;10.43;;;5.90;;
9823;SDS011;4951;50.778;7.196;2022-08-21T03:44:04;7.67;;;5.83;;
9823;SDS011;4951;50.778;7.196;2022-08-21T03:46:31;7.37;;;6.53;;
9823;SDS011;4951;50.778;7.196;2022-08-21T03:49:00;8.60;;;6.03;;
9823;SDS011;4951;50.778;7.196;2022-08-21T03:51:37;9.73;;;6.47;;
9823;SDS011;4951;50.778;7.196;2022-08-21T03:54:33;10.60;;;6.27;;
9823;SDS011;4951;50.778;7.196;2022-08-21T03:57:04;10.07;;;6.60;;
9823;SDS011;4951;50.778;7.196;2022-08-21T03:59:48;8.93;;;6.60;;
9823;SDS011;4951;50.778;7.196;2022-08-21T04:02:34;8.87;;;6.17;;
9823;SDS011;4951;50.778;7.196;2022-08-21T04:05:18;7.97;;;6.10;;
9823;SDS011;4951;50.778;7.196;2022-08-21T04:08:08;11.00;;;6.67;;
9823;SDS011;4951;50.778;7.196;2022-08-21T04:10:38;11.13;;;7.13;;
9823;SDS011;4951;50.778;7.196;2022-08-21T04:16:17;8.67;;;6.43;;
9823;SDS011;4951;50.778;7.196;2022-08-21T04:21:45;10.70;;;6.97;;
9823;SDS011;4951;50.778;7.196;2022-08-21T04:24:16;11.10;;;6.63;;
9823;SDS011;4951;50.778;7.196;2022-08-21T04:26:45;8.93;;;6.97;;
9823;SDS011;4951;50.778;7.196;2022-08-21T04:29:19;8.50;;;7.00;;
9823;SDS011;4951;50.778;7.196;2022-08-21T04:31:54;10.67;;;6.87;;
9823;SDS011;4951;50.778;7.196;2022-08-21T04:34:31;7.40;;;5.90;;
9823;SDS011;4951;50.778;7.196;2022-08-21T04:37:30;9.00;;;7.00;;
9823;SDS011;4951;50.778;7.196;2022-08-21T04:39:59;7.67;;;6.40;;
9823;SDS011;4951;50.778;7.196;2022-08-21T04:42:56;10.23;;;7.03;;
9823;SDS011;4951;50.778;7.196;2022-08-21T04:45:39;10.10;;;7.70;;
9823;SDS011;4951;50.778;7.196;2022-08-21T04:48:20;7.70;;;6.13;;
9823;SDS011;4951;50.778;7.196;2022-08-21T04:50:56;8.50;;;6.40;;
9823;SDS011;4951;50.778;7.196;2022-08-21T04:53:30;10.03;;;6.77;;
9823;SDS011;4951;50.778;7.196;2022-08-21T04:56:04;11.67;;;6.97;;
9823;SDS011;4951;50.778;7.196;2022-08-21T04:58:53;11.40;;;6.40;;
9823;SDS011;4951;50.778;7.196;2022-08-21T05:01:26;10.40;;;7.10;;
9823;SDS011;4951;50.778;7.196;2022-08-21T05:03:56;11.07;;;6.80;;
9823;SDS011;4951;50.778;7.196;2022-08-21T05:06:27;14.10;;;7.87;;
9823;SDS011;4951;50.778;7.196;2022-08-21T05:09:03;11.40;;;7.57;;
9823;SDS011;4951;50.778;7.196;2022-08-21T05:11:36;9.87;;;7.00;;
9823;SDS011;4951;50.778;7.196;2022-08-21T05:14:09;8.17;;;7.20;;
9823;SDS011;4951;50.778;7.196;2022-08-21T05:16:50;8.70;;;6.47;;
9823;SDS011;4951;50.778;7.196;2022-08-21T05:19:32;11.10;;;7.70;;
9823;SDS011;4951;50.778;7.196;2022-08-21T05:22:05;8.47;;;6.37;;
9823;SDS011;4951;50.778;7.196;2022-08-21T05:24:36;9.47;;;7.23;;
9823;SDS011;4951;50.778;7.196;2022-08-21T05:27:16;9.13;;;7.23;;
9823;SDS011;4951;50.778;7.196;2022-08-21T05:29:43;9.90;;;7.47;;
9823;SDS011;4951;50.778;7.196;2022-08-21T05:32:20;10.13;;;7.53;;
9823;SDS011;4951;50.778;7.196;2022-08-21T05:34:53;12.03;;;7.80;;
9823;SDS011;4951;50.778;7.196;2022-08-21T05:37:25;10.70;;;8.10;;
9823;SDS011;4951;50.778;7.196;2022-08-21T05:39:54;8.77;;;7.37;;
9823;SDS011;4951;50.778;7.196;2022-08-21T05:42:22;10.77;;;8.20;;
9823;SDS011;4951;50.778;7.196;2022-08-21T05:44:56;9.57;;;7.63;;
9823;SDS011;4951;50.778;7.196;2022-08-21T05:47:47;8.83;;;6.07;;
9823;SDS011;4951;50.778;7.196;2022-08-21T05:50:15;9.23;;;7.63;;
9823;SDS011;4951;50.778;7.196;2022-08-21T05:52:43;9.17;;;6.40;;
9823;SDS011;4951;50.778;7.196;2022-08-21T05:55:10;9.87;;;6.50;;
9823;SDS011;4951;50.778;7.196;2022-08-21T05:58:10;6.80;;;5.93;;
9823;SDS011;4951;50.778;7.196;2022-08-21T06:00:45;11.77;;;7.40;;
9823;SDS011;4951;50.778;7.196;2022-08-21T06:03:44;7.47;;;6.30;;
9823;SDS011;4951;50.778;7.196;2022-08-21T06:06:46;10.10;;;6.20;;
9823;SDS011;4951;50.778;7.196;2022-08-21T06:13:58;8.67;;;7.37;;
9823;SDS011;4951;50.778;7.196;2022-08-21T06:16:51;8.00;;;5.47;;
9823;SDS011;4951;50.778;7.196;2022-08-21T06:19:37;9.93;;;6.87;;
9823;SDS011;4951;50.778;7.196;2022-08-21T06:22:32;7.73;;;5.70;;
9823;SDS011;4951;50.778;7.196;2022-08-21T06:25:13;8.10;;;6.20;;
9823;SDS011;4951;50.778;7.196;2022-08-21T06:28:48;8.80;;;6.57;;
9823;SDS011;4951;50.778;7.196;2022-08-21T06:31:18;9.97;;;6.60;;
9823;SDS011;4951;50.778;7.196;2022-08-21T06:33:59;10.40;;;6.77;;
9823;SDS011;4951;50.778;7.196;2022-08-21T06:39:42;7.60;;;6.10;;
9823;SDS011;4951;50.778;7.196;2022-08-21T06:42:55;11.27;;;6.37;;
9823;SDS011;4951;50.778;7.196;2022-08-21T06:52:47;9.17;;;6.43;;
9823;SDS011;4951;50.778;7.196;2022-08-21T06:56:38;9.33;;;6.17;;
9823;SDS011;4951;50.778;7.196;2022-08-21T06:59:09;10.50;;;6.67;;
9823;SDS011;4951;50.778;7.196;2022-08-21T07:02:24;9.60;;;6.47;;
9823;SDS011;4951;50.778;7.196;2022-08-21T07:04:53;10.57;;;6.87;;
9823;SDS011;4951;50.778;7.196;2022-08-21T07:07:22;9.43;;;6.43;;
9823;SDS011;4951;50.778;7.196;2022-08-21T07:13:40;10.80;;;6.67;;
9823;SDS011;4951;50.778;7.196;2022-08-21T07:16:26;10.73;;;6.50;;
9823;SDS011;4951;50.778;7.196;2022-08-21T07:18:59;10.47;;;6.53;;
9823;SDS011;4951;50.778;7.196;2022-08-21T07:21:35;9.17;;;5.83;;
9823;SDS011;4951;50.778;7.196;2022-08-21T07:27:32;8.73;;;6.47;;
9823;SDS011;4951;50.778;7.196;2022-08-21T07:30:11;10.97;;;6.20;;
9823;SDS011;4951;50.778;7.196;2022-08-21T07:35:53;8.43;;;5.20;;
9823;SDS011;4951;50.778;7.196;2022-08-21T07:38:30;10.40;;;5.53;;
9823;SDS011;4951;50.778;7.196;2022-08-21T07:41:17;7.60;;;5.43;;
9823;SDS011;4951;50.778;7.196;2022-08-21T07:44:23;8.33;;;4.70;;
9823;SDS011;4951;50.778;7.196;2022-08-21T07:46:56;9.63;;;5.40;;
9823;SDS011;4951;50.778;7.196;2022-08-21T07:49:36;9.10;;;5.10;;
9823;SDS011;4951;50.778;7.196;2022-08-21T07:52:16;7.60;;;4.70;;
9823;SDS011;4951;50.778;7.196;2022-08-21T07:55:00;6.97;;;4.37;;
9823;SDS011;4951;50.778;7.196;2022-08-21T07:57:35;10.00;;;4.60;;
9823;SDS011;4951;50.778;7.196;2022-08-21T08:00:28;5.30;;;4.40;;
9823;SDS011;4951;50.778;7.196;2022-08-21T08:02:56;7.40;;;4.50;;
9823;SDS011;4951;50.778;7.196;2022-08-21T08:06:06;11.30;;;4.90;;
9823;SDS011;4951;50.778;7.196;2022-08-21T08:09:16;8.63;;;4.40;;
9823;SDS011;4951;50.778;7.196;2022-08-21T08:12:33;11.77;;;4.60;;
9823;SDS011;4951;50.778;7.196;2022-08-21T08:16:13;7.65;;;4.85;;
9823;SDS011;4951;50.778;7.196;2022-08-21T08:18:51;9.77;;;4.87;;
9823;SDS011;4951;50.778;7.196;2022-08-21T08:21:25;8.80;;;4.37;;
9823;SDS011;4951;50.778;7.196;2022-08-21T08:23:53;7.67;;;4.20;;
9823;SDS011;4951;50.778;7.196;2022-08-21T08:26:57;9.67;;;4.70;;
9823;SDS011;4951;50.778;7.196;2022-08-21T08:29:33;7.20;;;4.30;;
9823;SDS011;4951;50.778;7.196;2022-08-21T08:41:16;6.68;;;3.97;;
9823;SDS011;4951;50.778;7.196;2022-08-21T08:44:16;7.32;;;3.72;;
9823;SDS011;4951;50.778;7.196;2022-08-21T08:46:47;7.75;;;3.92;;
9823;SDS011;4951;50.778;7.196;2022-08-21T08:53:47;7.43;;;3.83;;
9823;SDS011;4951;50.778;7.196;2022-08-21T08:56:28;6.90;;;3.55;;
9823;SDS011;4951;50.778;7.196;2022-08-21T08:59:13;9.52;;;4.28;;
9823;SDS011;4951;50.778;7.196;2022-08-21T09:02:23;7.80;;;4.35;;
9823;SDS011;4951;50.778;7.196;2022-08-21T09:10:03;7.25;;;3.20;;
9823;SDS011;4951;50.778;7.196;2022-08-21T09:13:29;6.22;;;3.25;;
9823;SDS011;4951;50.778;7.196;2022-08-21T09:16:33;8.02;;;3.35;;
9823;SDS011;4951;50.778;7.196;2022-08-21T09:19:45;10.57;;;3.33;;
9823;SDS011;4951;50.778;7.196;2022-08-21T09:23:09;4.78;;;2.75;;
9823;SDS011;4951;50.778;7.196;2022-08-21T09:26:35;4.55;;;2.58;;
9823;SDS011;4951;50.778;7.196;2022-08-21T09:29:43;3.90;;;2.65;;
9823;SDS011;4951;50.778;7.196;2022-08-21T09:32:38;7.07;;;2.92;;
9823;SDS011;4951;50.778;7.196;2022-08-21T09:36:08;6.50;;;3.20;;
9823;SDS011;4951;50.778;7.196;2022-08-21T09:39:24;6.22;;;2.90;;
9823;SDS011;4951;50.778;7.196;2022-08-21T09:59:46;3.95;;;2.10;;
9823;SDS011;4951;50.778;7.196;2022-08-21T10:02:46;5.15;;;2.00;;
9823;SDS011;4951;50.778;7.196;2022-08-21T10:05:26;5.47;;;2.35;;
9823;SDS011;4951;50.778;7.196;2022-08-21T10:07:56;7.63;;;2.80;;
9823;SDS011;4951;50.778;7.196;2022-08-21T10:10:51;7.90;;;2.40;;
9823;SDS011;4951;50.778;7.196;2022-08-21T10:13:29;5.85;;;2.40;;
9823;SDS011;4951;50.778;7.196;2022-08-21T10:16:08;4.45;;;2.33;;
9823;SDS011;4951;50.778;7.196;2022-08-21T10:19:08;4.47;;;2.05;;
9823;SDS011;4951;50.778;7.196;2022-08-21T10:21:57;4.50;;;2.00;;
9823;SDS011;4951;50.778;7.196;2022-08-21T10:24:36;6.95;;;2.47;;
9823;SDS011;4951;50.778;7.196;2022-08-21T10:27:21;3.45;;;2.30;;
9823;SDS011;4951;50.778;7.196;2022-08-21T10:30:16;10.73;;;2.47;;
9823;SDS011;4951;50.778;7.196;2022-08-21T10:33:18;5.20;;;2.38;;
9823;SDS011;4951;50.778;7.196;2022-08-21T10:36:24;5.53;;;2.65;;
9823;SDS011;4951;50.778;7.196;2022-08-21T10:40:29;5.50;;;2.35;;
9823;SDS011;4951;50.778;7.196;2022-08-21T10:42:47;5.43;;;2.17;;
9823;SDS011;4951;50.778;7.196;2022-08-21T10:45:41;6.13;;;2.15;;
9823;SDS011;4951;50.778;7.196;2022-08-21T10:48:35;6.72;;;2.38;;
9823;SDS011;4951;50.778;7.196;2022-08-21T10:54:05;6.28;;;2.42;;
9823;SDS011;4951;50.778;7.196;2022-08-21T10:57:27;3.90;;;1.83;;
9823;SDS011;4951;50.778;7.196;2022-08-21T11:00:07;6.38;;;2.17;;
9823;SDS011;4951;50.778;7.196;2022-08-21T11:02:57;7.40;;;2.28;;
9823;SDS011;4951;50.778;7.196;2022-08-21T11:05:50;6.45;;;2.47;;
9823;SDS011;4951;50.778;7.196;2022-08-21T11:09:04;4.93;;;1.88;;
9823;SDS011;4951;50.778;7.196;2022-08-21T11:11:50;5.35;;;2.20;;
9823;SDS011;4951;50.778;7.196;2022-08-21T11:14:39;4.28;;;1.98;;
9823;SDS011;4951;50.778;7.196;2022-08-21T11:17:28;3.25;;;1.92;;
9823;SDS011;4951;50.778;7.196;2022-08-21T11:23:42;3.92;;;2.05;;
9823;SDS011;4951;50.778;7.196;2022-08-21T11:26:36;5.03;;;2.33;;
9823;SDS011;4951;50.778;7.196;2022-08-21T11:30:13;3.97;;;1.90;;
9823;SDS011;4951;50.778;7.196;2022-08-21T11:32:45;3.83;;;2.00;;
9823;SDS011;4951;50.778;7.196;2022-08-21T11:35:28;6.20;;;1.90;;
9823;SDS011;4951;50.778;7.196;2022-08-21T11:38:21;4.88;;;1.95;;
9823;SDS011;4951;50.778;7.196;2022-08-21T11:42:06;6.60;;;2.28;;
9823;SDS011;4951;50.778;7.196;2022-08-21T11:45:26;3.78;;;1.85;;
9823;SDS011;4951;50.778;7.196;2022-08-21T11:49:00;3.70;;;1.95;;
9823;SDS011;4951;50.778;7.196;2022-08-21T11:51:57;2.75;;;1.77;;
9823;SDS011;4951;50.778;7.196;2022-08-21T11:57:27;4.35;;;1.80;;
9823;SDS011;4951;50.778;7.196;2022-08-21T12:00:24;3.13;;;1.75;;
9823;SDS011;4951;50.778;7.196;2022-08-21T12:03:06;3.55;;;1.80;;
9823;SDS011;4951;50.778;7.196;2022-08-21T12:06:08;5.03;;;2.00;;
9823;SDS011;4951;50.778;7.196;2022-08-21T12:08:42;3.60;;;1.98;;
9823;SDS011;4951;50.778;7.196;2022-08-21T12:11:31;3.60;;;1.92;;
9823;SDS011;4951;50.778;7.196;2022-08-21T12:17:35;3.45;;;1.83;;
9823;SDS011;4951;50.778;7.196;2022-08-21T12:20:38;4.32;;;1.90;;
9823;SDS011;4951;50.778;7.196;2022-08-21T12:23:27;2.63;;;1.90;;
9823;SDS011;4951;50.778;7.196;2022-08-21T12:26:09;5.45;;;2.00;;
9823;SDS011;4951;50.778;7.196;2022-08-21T12:28:47;4.45;;;2.10;;
9823;SDS011;4951;50.778;7.196;2022-08-21T12:32:22;3.03;;;1.90;;
9823;SDS011;4951;50.778;7.196;2022-08-21T12:35:01;9.48;;;2.33;;
9823;SDS011;4951;50.778;7.196;2022-08-21T12:38:12;3.10;;;2.05;;
9823;SDS011;4951;50.778;7.196;2022-08-21T12:40:50;3.03;;;1.90;;
9823;SDS011;4951;50.778;7.196;2022-08-21T12:43:59;3.60;;;1.85;;
9823;SDS011;4951;50.778;7.196;2022-08-21T12:46:56;8.68;;;2.00;;
9823;SDS011;4951;50.778;7.196;2022-08-21T12:49:37;4.15;;;2.03;;
9823;SDS011;4951;50.778;7.196;2022-08-21T12:53:21;2.67;;;1.83;;
9823;SDS011;4951;50.778;7.196;2022-08-21T12:56:11;4.03;;;1.88;;
9823;SDS011;4951;50.778;7.196;2022-08-21T12:59:16;3.88;;;1.88;;
9823;SDS011;4951;50.778;7.196;2022-08-21T13:01:49;5.25;;;1.73;;
9823;SDS011;4951;50.778;7.196;2022-08-21T13:04:27;5.78;;;1.95;;
9823;SDS011;4951;50.778;7.196;2022-08-21T13:07:05;4.38;;;2.00;;
9823;SDS011;4951;50.778;7.196;2022-08-21T13:09:37;5.13;;;2.10;;
9823;SDS011;4951;50.778;7.196;2022-08-21T13:12:12;2.28;;;1.42;;
9823;SDS011;4951;50.778;7.196;2022-08-21T13:14:48;4.97;;;2.05;;
9823;SDS011;4951;50.778;7.196;2022-08-21T13:23:19;2.90;;;1.80;;
9823;SDS011;4951;50.778;7.196;2022-08-21T13:26:12;3.30;;;1.67;;
9823;SDS011;4951;50.778;7.196;2022-08-21T13:29:27;3.63;;;1.50;;
9823;SDS011;4951;50.778;7.196;2022-08-21T13:35:50;3.38;;;1.83;;
9823;SDS011;4951;50.778;7.196;2022-08-21T13:47:04;3.72;;;1.80;;
9823;SDS011;4951;50.778;7.196;2022-08-21T13:55:44;4.43;;;2.10;;
9823;SDS011;4951;50.778;7.196;2022-08-21T13:58:41;4.30;;;1.70;;
9823;SDS011;4951;50.778;7.196;2022-08-21T14:04:07;4.22;;;2.08;;
9823;SDS011;4951;50.778;7.196;2022-08-21T14:06:44;5.30;;;1.95;;
9823;SDS011;4951;50.778;7.196;2022-08-21T14:12:26;4.82;;;2.20;;
9823;SDS011;4951;50.778;7.196;2022-08-21T14:15:17;5.25;;;1.80;;
9823;SDS011;4951;50.778;7.196;2022-08-21T14:18:07;5.53;;;2.30;;
9823;SDS011;4951;50.778;7.196;2022-08-21T14:23:38;4.25;;;2.15;;
9823;SDS011;4951;50.778;7.196;2022-08-21T14:26:15;5.13;;;1.85;;
9823;SDS011;4951;50.778;7.196;2022-08-21T14:28:46;2.70;;;1.90;;
9823;SDS011;4951;50.778;7.196;2022-08-21T14:31:38;4.13;;;2.03;;
9823;SDS011;4951;50.778;7.196;2022-08-21T14:34:43;3.47;;;2.00;;
9823;SDS011;4951;50.778;7.196;2022-08-21T14:40:39;2.70;;;1.80;;
9823;SDS011;4951;50.778;7.196;2022-08-21T14:43:08;3.47;;;1.70;;
9823;SDS011;4951;50.778;7.196;2022-08-21T14:46:20;3.95;;;2.03;;
9823;SDS011;4951;50.778;7.196;2022-08-21T14:49:36;3.40;;;1.73;;
9823;SDS011;4951;50.778;7.196;2022-08-21T14:52:26;4.10;;;1.92;;
9823;SDS011;4951;50.778;7.196;2022-08-21T14:54:53;3.20;;;1.80;;
9823;SDS011;4951;50.778;7.196;2022-08-21T14:57:21;3.42;;;2.03;;
9823;SDS011;4951;50.778;7.196;2022-08-21T14:59:51;6.75;;;2.15;;
9823;SDS011;4951;50.778;7.196;2022-08-21T15:02:29;4.05;;;1.85;;
9823;SDS011;4951;50.778;7.196;2022-08-21T15:05:38;5.68;;;1.83;;
9823;SDS011;4951;50.778;7.196;2022-08-21T15:08:17;4.28;;;2.10;;
9823;SDS011;4951;50.778;7.196;2022-08-21T15:11:07;4.20;;;2.00;;
9823;SDS011;4951;50.778;7.196;2022-08-21T15:13:46;4.10;;;2.28;;
9823;SDS011;4951;50.778;7.196;2022-08-21T15:16:36;3.25;;;1.58;;
9823;SDS011;4951;50.778;7.196;2022-08-21T15:19:45;6.25;;;1.80;;
9823;SDS011;4951;50.778;7.196;2022-08-21T15:22:15;5.45;;;2.35;;
9823;SDS011;4951;50.778;7.196;2022-08-21T15:24:44;4.35;;;1.90;;
9823;SDS011;4951;50.778;7.196;2022-08-21T15:27:20;4.03;;;2.10;;
9823;SDS011;4951;50.778;7.196;2022-08-21T15:30:11;3.72;;;1.90;;
9823;SDS011;4951;50.778;7.196;2022-08-21T15:32:50;3.38;;;1.77;;
9823;SDS011;4951;50.778;7.196;2022-08-21T15:35:22;5.45;;;2.20;;
9823;SDS011;4951;50.778;7.196;2022-08-21T15:38:20;2.78;;;1.73;;
9823;SDS011;4951;50.778;7.196;2022-08-21T15:40:48;4.80;;;2.25;;
9823;SDS011;4951;50.778;7.196;2022-08-21T15:43:21;4.68;;;1.80;;
9823;SDS011;4951;50.778;7.196;2022-08-21T15:45:51;5.03;;;2.25;;
9823;SDS011;4951;50.778;7.196;2022-08-21T15:48:18;2.92;;;1.83;;
9823;SDS011;4951;50.778;7.196;2022-08-21T15:50:55;5.82;;;2.08;;
9823;SDS011;4951;50.778;7.196;2022-08-21T15:53:41;4.30;;;2.13;;
9823;SDS011;4951;50.778;7.196;2022-08-21T15:56:17;3.38;;;2.03;;
9823;SDS011;4951;50.778;7.196;2022-08-21T15:58:53;13.50;;;6.07;;
9823;SDS011;4951;50.778;7.196;2022-08-21T16:01:24;6.00;;;3.22;;
9823;SDS011;4951;50.778;7.196;2022-08-21T16:03:52;6.15;;;3.38;;
9823;SDS011;4951;50.778;7.196;2022-08-21T16:06:25;10.32;;;5.18;;
9823;SDS011;4951;50.778;7.196;2022-08-21T16:08:58;7.57;;;5.20;;
9823;SDS011;4951;50.778;7.196;2022-08-21T16:11:26;8.98;;;4.00;;
9823;SDS011;4951;50.778;7.196;2022-08-21T16:13:57;8.23;;;2.90;;
9823;SDS011;4951;50.778;7.196;2022-08-21T16:16:25;5.80;;;2.28;;
9823;SDS011;4951;50.778;7.196;2022-08-21T16:18:53;4.10;;;2.30;;
9823;SDS011;4951;50.778;7.196;2022-08-21T16:21:20;6.65;;;2.22;;
9823;SDS011;4951;50.778;7.196;2022-08-21T16:23:49;4.68;;;2.10;;
9823;SDS011;4951;50.778;7.196;2022-08-21T16:26:16;2.88;;;1.80;;
9823;SDS011;4951;50.778;7.196;2022-08-21T16:28:44;4.53;;;2.30;;
9823;SDS011;4951;50.778;7.196;2022-08-21T16:31:15;4.35;;;2.17;;
9823;SDS011;4951;50.778;7.196;2022-08-21T16:33:54;7.20;;;2.33;;
9823;SDS011;4951;50.778;7.196;2022-08-21T16:36:25;3.90;;;1.73;;
9823;SDS011;4951;50.778;7.196;2022-08-21T16:39:09;3.58;;;1.90;;
9823;SDS011;4951;50.778;7.196;2022-08-21T16:41:44;3.83;;;2.10;;
9823;SDS011;4951;50.778;7.196;2022-08-21T16:44:18;4.28;;;1.70;;
9823;SDS011;4951;50.778;7.196;2022-08-21T16:46:47;3.38;;;1.80;;
9823;SDS011;4951;50.778;7.196;2022-08-21T16:49:18;5.65;;;2.03;;
9823;SDS011;4951;50.778;7.196;2022-08-21T16:51:45;3.20;;;2.00;;
9823;SDS011;4951;50.778;7.196;2022-08-21T16:54:14;3.63;;;2.08;;
9823;SDS011;4951;50.778;7.196;2022-08-21T16:56:56;3.53;;;2.03;;
9823;SDS011;4951;50.778;7.196;2022-08-21T16:59:23;4.05;;;1.70;;
9823;SDS011;4951;50.778;7.196;2022-08-21T17:01:52;3.75;;;1.80;;
9823;SDS011;4951;50.778;7.196;2022-08-21T17:04:22;3.40;;;1.85;;
9823;SDS011;4951;50.778;7.196;2022-08-21T17:06:53;5.53;;;1.98;;
9823;SDS011;4951;50.778;7.196;2022-08-21T17:09:24;4.75;;;1.90;;
9823;SDS011;4951;50.778;7.196;2022-08-21T17:16:24;3.50;;;1.90;;
9823;SDS011;4951;50.778;7.196;2022-08-21T17:18:58;2.75;;;1.88;;
9823;SDS011;4951;50.778;7.196;2022-08-21T17:21:59;3.53;;;1.85;;
9823;SDS011;4951;50.778;7.196;2022-08-21T17:24:28;2.35;;;1.63;;
9823;SDS011;4951;50.778;7.196;2022-08-21T17:27:04;2.35;;;1.80;;
9823;SDS011;4951;50.778;7.196;2022-08-21T17:29:35;3.42;;;1.50;;
9823;SDS011;4951;50.778;7.196;2022-08-21T17:32:10;1.75;;;1.45;;
9823;SDS011;4951;50.778;7.196;2022-08-21T17:34:46;4.78;;;1.80;;
9823;SDS011;4951;50.778;7.196;2022-08-21T17:37:17;4.03;;;1.88;;
9823;SDS011;4951;50.778;7.196;2022-08-21T17:40:14;5.25;;;1.92;;
9823;SDS011;4951;50.778;7.196;2022-08-21T17:42:51;3.53;;;1.95;;
9823;SDS011;4951;50.778;7.196;2022-08-21T17:45:36;3.40;;;1.80;;
9823;SDS011;4951;50.778;7.196;2022-08-21T17:48:22;4.78;;;2.05;;
9823;SDS011;4951;50.778;7.196;2022-08-21T17:51:08;2.75;;;2.00;;
9823;SDS011;4951;50.778;7.196;2022-08-21T17:54:13;2.47;;;1.58;;
9823;SDS011;4951;50.778;7.196;2022-08-21T17:56:50;3.17;;;1.85;;
9823;SDS011;4951;50.778;7.196;2022-08-21T17:59:18;3.25;;;1.60;;
9823;SDS011;4951;50.778;7.196;2022-08-21T18:02:01;3.75;;;1.80;;
9823;SDS011;4951;50.778;7.196;2022-08-21T18:05:47;3.47;;;1.75;;
9823;SDS011;4951;50.778;7.196;2022-08-21T18:09:06;3.75;;;1.98;;
9823;SDS011;4951;50.778;7.196;2022-08-21T18:12:10;4.60;;;1.83;;
9823;SDS011;4951;50.778;7.196;2022-08-21T18:14:47;3.40;;;2.00;;
9823;SDS011;4951;50.778;7.196;2022-08-21T18:17:18;1.88;;;1.58;;
9823;SDS011;4951;50.778;7.196;2022-08-21T18:22:52;2.42;;;1.60;;
9823;SDS011;4951;50.778;7.196;2022-08-21T18:25:22;4.40;;;1.75;;
9823;SDS011;4951;50.778;7.196;2022-08-21T18:27:51;4.60;;;1.90;;
9823;SDS011;4951;50.778;7.196;2022-08-21T18:30:22;2.88;;;1.60;;
9823;SDS011;4951;50.778;7.196;2022-08-21T18:33:05;3.38;;;1.90;;
9823;SDS011;4951;50.778;7.196;2022-08-21T18:36:04;4.65;;;1.77;;
9823;SDS011;4951;50.778;7.196;2022-08-21T18:38:31;5.85;;;2.10;;
9823;SDS011;4951;50.778;7.196;2022-08-21T18:40:59;2.50;;;1.83;;
9823;SDS011;4951;50.778;7.196;2022-08-21T18:46:18;3.72;;;1.92;;
9823;SDS011;4951;50.778;7.196;2022-08-21T18:48:46;3.03;;;2.00;;
9823;SDS011;4951;50.778;7.196;2022-08-21T18:51:14;5.93;;;1.85;;
9823;SDS011;4951;50.778;7.196;2022-08-21T18:53:48;4.57;;;1.80;;
9823;SDS011;4951;50.778;7.196;2022-08-21T18:56:28;2.92;;;1.90;;